Time;durP1;ratioP1;P1;durP2;ratioP2;P2;SDS_P1;SDS_P2;PMS_P1;PMS_P2;Temp;Humidity;BMP_temperature;BMP_pressure;BME280_temperature;BME280_humidity;BME280_pressure;Samples;Min_cycle;Max_cycle;Signal;HPM_P1;HPM_P2
2022/03/17 00:00:47;;;;;;;45.35;34.13;;;7.60;99.90;;;;;;5054082;28;20107;-80
2022/03/17 00:03:13;;;;;;;44.45;33.22;;;7.70;99.90;;;;;;5068380;28;20020;-80
2022/03/17 00:05:39;;;;;;;46.97;33.55;;;7.60;99.90;;;;;;5073750;28;20385;-79
2022/03/17 00:08:04;;;;;;;43.88;32.88;;;7.50;99.90;;;;;;5065580;28;20475;-80
2022/03/17 00:10:30;;;;;;;44.35;32.10;;;7.50;99.90;;;;;;5074441;28;20523;-77
2022/03/17 00:12:56;;;;;;;41.35;31.95;;;7.40;99.90;;;;;;5063030;28;20390;-79
2022/03/17 00:15:21;;;;;;;42.42;31.48;;;7.40;99.90;;;;;;5064704;28;20377;-79
2022/03/17 00:17:47;;;;;;;48.30;34.28;;;7.30;99.90;;;;;;5073359;28;20035;-78
2022/03/17 00:20:14;;;;;;;45.75;35.22;;;7.30;99.90;;;;;;5074163;28;20389;-79
2022/03/17 00:22:40;;;;;;;50.15;35.53;;;7.40;99.90;;;;;;5064980;28;20021;-79
2022/03/17 00:25:07;;;;;;;43.25;33.85;;;7.60;99.90;;;;;;5054302;28;20116;-79
2022/03/17 00:27:33;;;;;;;41.63;31.33;;;7.50;99.90;;;;;;5054027;28;20418;-77
2022/03/17 00:29:59;;;;;;;38.67;30.33;;;7.50;99.90;;;;;;5054193;28;20055;-78
2022/03/17 00:32:26;;;;;;;41.72;32.10;;;7.50;99.90;;;;;;5060136;28;20478;-78
2022/03/17 00:37:36;;;;;;;42.28;31.90;;;7.30;99.90;;;;;;5073664;28;20089;-78
2022/03/17 00:40:03;;;;;;;45.20;33.58;;;7.20;99.90;;;;;;5059708;28;20033;-78
2022/03/17 00:42:28;;;;;;;43.35;33.28;;;7.20;99.90;;;;;;5060328;28;20074;-78
2022/03/17 00:44:57;;;;;;;43.55;31.92;;;7.10;99.90;;;;;;5060365;28;20679;-78
2022/03/17 00:47:23;;;;;;;41.55;31.92;;;7.10;99.90;;;;;;5053924;28;20029;-77
2022/03/17 00:49:48;;;;;;;43.13;32.95;;;7.00;99.90;;;;;;5052993;28;20428;-77
2022/03/17 00:52:15;;;;;;;43.55;32.00;;;7.00;99.90;;;;;;5065054;28;20061;-77
2022/03/17 00:54:41;;;;;;;45.30;33.28;;;6.90;99.90;;;;;;5053098;28;20409;-78
2022/03/17 00:57:08;;;;;;;46.50;33.03;;;6.90;99.90;;;;;;5053873;28;20057;-78
2022/03/17 00:59:36;;;;;;;44.40;31.73;;;6.90;99.90;;;;;;5053643;28;20025;-77
2022/03/17 01:02:02;;;;;;;42.35;30.80;;;6.80;99.90;;;;;;5059713;28;20036;-78
2022/03/17 01:04:27;;;;;;;42.30;30.90;;;6.80;99.90;;;;;;5073580;28;20024;-78
2022/03/17 01:06:53;;;;;;;42.97;31.42;;;6.70;99.90;;;;;;5071021;28;20028;-77
2022/03/17 01:09:19;;;;;;;44.67;32.78;;;6.70;99.90;;;;;;5073757;28;20103;-77
2022/03/17 01:11:45;;;;;;;48.22;33.22;;;6.70;99.90;;;;;;5072652;28;20044;-76
2022/03/17 01:14:10;;;;;;;45.22;33.05;;;6.60;99.90;;;;;;5059470;28;20031;-76
2022/03/17 01:16:36;;;;;;;43.60;33.22;;;6.60;99.90;;;;;;5073124;28;20111;-76
2022/03/17 01:19:01;;;;;;;46.50;32.85;;;6.60;99.90;;;;;;5073549;28;20038;-76
2022/03/17 01:21:29;;;;;;;47.85;33.83;;;6.50;99.90;;;;;;5073113;28;20036;-77
2022/03/17 01:23:54;;;;;;;48.17;34.53;;;6.50;99.90;;;;;;5071957;28;20021;-77
2022/03/17 01:26:20;;;;;;;47.63;33.83;;;6.50;99.90;;;;;;5073054;28;20035;-77
2022/03/17 01:28:46;;;;;;;50.80;37.05;;;6.50;99.90;;;;;;5072755;28;20060;-77
2022/03/17 01:31:11;;;;;;;47.17;34.95;;;6.50;99.90;;;;;;5072889;28;20029;-75
2022/03/17 01:33:37;;;;;;;47.40;34.72;;;6.50;99.90;;;;;;5059035;28;20025;-76
2022/03/17 01:36:03;;;;;;;47.95;34.33;;;6.50;99.90;;;;;;5070382;28;20107;-76
2022/03/17 01:38:29;;;;;;;56.72;35.80;;;6.40;99.90;;;;;;5072818;28;20028;-76
2022/03/17 01:40:54;;;;;;;48.88;35.10;;;6.40;99.90;;;;;;5066724;28;20032;-75
2022/03/17 01:43:21;;;;;;;51.65;36.45;;;6.40;99.90;;;;;;5035028;28;20025;-75
2022/03/17 01:45:46;;;;;;;51.97;35.65;;;6.40;99.90;;;;;;5063048;28;20482;-75
2022/03/17 01:48:12;;;;;;;52.72;37.83;;;6.30;99.90;;;;;;5072775;28;20108;-75
2022/03/17 01:50:39;;;;;;;54.10;36.53;;;6.40;99.90;;;;;;5068864;28;20051;-75
2022/03/17 01:53:05;;;;;;;50.70;36.60;;;6.30;99.90;;;;;;5052715;28;20033;-75
2022/03/17 01:55:30;;;;;;;54.75;38.75;;;6.30;99.90;;;;;;5047736;28;20070;-75
2022/03/17 01:57:56;;;;;;;49.83;35.20;;;6.30;99.90;;;;;;5070826;28;20081;-75
2022/03/17 02:00:23;;;;;;;47.55;34.45;;;6.30;99.90;;;;;;5071081;28;20099;-75
2022/03/17 02:02:51;;;;;;;47.53;34.55;;;6.30;99.90;;;;;;5051748;28;20480;-75
2022/03/17 02:05:17;;;;;;;52.60;37.85;;;6.30;99.90;;;;;;5063115;28;20029;-74
2022/03/17 02:07:52;;;;;;;53.45;37.53;;;6.30;99.90;;;;;;5071658;28;20032;-75
2022/03/17 02:10:19;;;;;;;50.00;35.83;;;6.30;99.90;;;;;;5070080;28;20099;-75
2022/03/17 02:15:32;;;;;;;49.72;35.30;;;6.30;99.90;;;;;;5062294;28;20058;-74
2022/03/17 02:17:59;;;;;;;49.63;35.20;;;6.30;99.90;;;;;;5071116;28;20029;-74
2022/03/17 02:20:26;;;;;;;51.17;35.83;;;6.30;99.90;;;;;;5071390;28;20100;-74
2022/03/17 02:22:55;;;;;;;51.08;35.03;;;6.20;99.90;;;;;;5072422;28;20029;-74
2022/03/17 02:25:35;;;;;;;51.22;35.13;;;6.30;99.90;;;;;;5074134;28;20024;-74
2022/03/17 02:28:02;;;;;;;;;;;6.20;99.90;;;;;;5071860;28;20381;-74
2022/03/17 02:30:29;;;;;;;50.83;33.97;;;6.20;99.90;;;;;;5071029;28;19908;-74
2022/03/17 02:33:00;;;;;;;53.05;36.60;;;6.20;99.90;;;;;;5071350;28;20108;-74
2022/03/17 02:35:26;;;;;;;50.53;35.92;;;6.20;99.90;;;;;;5071597;28;20111;-74
2022/03/17 02:37:52;;;;;;;53.00;37.40;;;6.30;99.90;;;;;;5070495;28;20085;-74
2022/03/17 02:40:18;;;;;;;53.33;37.00;;;6.30;99.90;;;;;;5072121;28;20025;-74
2022/03/17 02:42:45;;;;;;;53.58;37.90;;;6.30;99.90;;;;;;5071149;28;20031;-74
2022/03/17 02:45:11;;;;;;;56.15;37.88;;;6.30;99.90;;;;;;5056682;28;20025;-74
2022/03/17 02:47:37;;;;;;;53.13;37.03;;;6.40;99.90;;;;;;5052320;28;20032;-74
2022/03/17 02:50:04;;;;;;;52.75;37.45;;;6.40;99.90;;;;;;5066032;28;20390;-73
2022/03/17 02:52:30;;;;;;;51.90;36.72;;;6.40;99.90;;;;;;5071561;28;20036;-73
2022/03/17 02:54:56;;;;;;;55.25;37.85;;;6.40;99.90;;;;;;5070956;28;20024;-73
2022/03/17 02:57:22;;;;;;;53.67;37.00;;;6.50;99.90;;;;;;5057590;28;20028;-73
2022/03/17 02:59:48;;;;;;;51.92;36.22;;;6.50;99.90;;;;;;5050641;28;20104;-73
2022/03/17 03:02:18;;;;;;;51.90;36.30;;;6.50;99.90;;;;;;5069050;28;20040;-73
2022/03/17 03:04:43;;;;;;;59.38;38.90;;;6.60;99.90;;;;;;5070892;28;20035;-73
2022/03/17 03:07:09;;;;;;;54.13;37.47;;;6.60;99.90;;;;;;5071585;28;20029;-73
2022/03/17 03:09:35;;;;;;;50.35;35.67;;;6.70;99.90;;;;;;5071658;28;20021;-73
2022/03/17 03:12:01;;;;;;;52.78;35.80;;;6.80;99.90;;;;;;5070700;28;20037;-73
2022/03/17 03:14:28;;;;;;;50.30;34.95;;;6.80;99.90;;;;;;5053879;28;20490;-73
2022/03/17 03:16:54;;;;;;;50.55;35.25;;;6.90;99.90;;;;;;5050579;28;20036;-73
2022/03/17 03:19:20;;;;;;;50.03;34.80;;;7.00;99.90;;;;;;5051752;28;20033;-73
2022/03/17 03:21:46;;;;;;;49.85;35.33;;;7.00;99.90;;;;;;5066401;28;20414;-73
2022/03/17 03:24:13;;;;;;;52.17;36.13;;;7.10;99.90;;;;;;5067274;28;20025;-72
2022/03/17 03:26:40;;;;;;;48.45;34.67;;;7.20;99.90;;;;;;5051009;28;20061;-74
2022/03/17 03:31:53;;;;;;;53.35;36.05;;;7.30;99.90;;;;;;5067237;28;20070;-72
2022/03/17 03:34:19;;;;;;;48.53;35.13;;;7.30;99.90;;;;;;5069374;28;20029;-72
2022/03/17 03:39:29;;;;;;;49.67;35.22;;;7.40;99.90;;;;;;5071309;28;20035;-71
2022/03/17 03:41:55;;;;;;;49.83;34.22;;;7.40;99.90;;;;;;5052112;28;20099;-72
2022/03/17 03:44:21;;;;;;;47.05;34.03;;;7.40;99.90;;;;;;5062393;28;20033;-71
2022/03/17 03:46:46;;;;;;;48.00;34.25;;;7.40;99.90;;;;;;5050504;28;20029;-72
2022/03/17 03:49:12;;;;;;;50.78;34.47;;;7.40;99.90;;;;;;5055413;28;20052;-72
2022/03/17 03:51:38;;;;;;;49.67;34.55;;;7.40;99.90;;;;;;5070667;28;20559;-72
2022/03/17 03:54:13;;;;;;;48.90;34.50;;;7.40;99.90;;;;;;5070705;28;20029;-72
2022/03/17 03:56:39;;;;;;;46.60;33.65;;;7.40;99.90;;;;;;5072066;28;20070;-73
2022/03/17 03:59:10;;;;;;;51.55;34.13;;;7.40;99.90;;;;;;5071269;28;20486;-72
2022/03/17 04:01:36;;;;;;;54.72;36.15;;;7.40;99.90;;;;;;5085614;28;20044;-71
2022/03/17 04:04:01;;;;;;;49.38;34.03;;;7.40;99.90;;;;;;5090460;28;20024;-71
2022/03/17 04:06:28;;;;;;;51.40;35.35;;;7.40;99.90;;;;;;5082907;28;20029;-72
2022/03/17 04:08:54;;;;;;;53.22;34.72;;;7.40;99.90;;;;;;5075619;28;20024;-71
2022/03/17 04:11:19;;;;;;;49.22;34.90;;;7.40;99.90;;;;;;5093969;28;20032;-72
2022/03/17 04:13:45;;;;;;;54.45;35.38;;;7.40;99.90;;;;;;5089093;28;20958;-72
2022/03/17 04:16:10;;;;;;;50.33;34.40;;;7.30;99.90;;;;;;5080247;28;20040;-72
2022/03/17 04:18:36;;;;;;;50.05;35.15;;;7.40;99.90;;;;;;5094614;28;20384;-72
2022/03/17 04:21:02;;;;;;;49.63;34.47;;;7.40;99.90;;;;;;5094067;28;20353;-73
2022/03/17 04:23:27;;;;;;;49.92;35.90;;;7.30;99.90;;;;;;5094527;28;20044;-73
2022/03/17 04:25:53;;;;;;;54.97;36.20;;;7.30;99.90;;;;;;5091037;28;20429;-73
2022/03/17 04:28:19;;;;;;;52.33;35.78;;;7.30;99.90;;;;;;5074428;28;20031;-72
2022/03/17 04:30:45;;;;;;;48.95;35.40;;;7.30;99.90;;;;;;5073455;28;20110;-72
2022/03/17 04:33:10;;;;;;;54.50;35.25;;;7.30;99.90;;;;;;5074339;28;20032;-72
2022/03/17 04:35:36;;;;;;;51.65;36.00;;;7.30;99.90;;;;;;5074475;28;20083;-72
2022/03/17 04:38:02;;;;;;;50.75;36.28;;;7.30;99.90;;;;;;5091680;28;20024;-72
2022/03/17 04:40:27;;;;;;;50.10;35.80;;;7.30;99.90;;;;;;5074054;28;20027;-72
2022/03/17 04:42:53;;;;;;;48.47;33.50;;;7.30;99.90;;;;;;5073277;28;20024;-72
2022/03/17 04:45:19;;;;;;;49.70;35.53;;;7.30;99.90;;;;;;5073946;28;20453;-72
2022/03/17 04:47:45;;;;;;;53.00;35.08;;;7.30;99.90;;;;;;5073338;28;20063;-73
2022/03/17 04:50:10;;;;;;;52.20;37.08;;;7.30;99.90;;;;;;5061308;28;20049;-72
2022/03/17 04:55:21;;;;;;;47.95;34.15;;;7.30;99.90;;;;;;5055236;28;20393;-72
2022/03/17 04:57:47;;;;;;;50.33;36.13;;;7.20;99.90;;;;;;5073448;28;20378;-72
2022/03/17 05:00:13;;;;;;;48.72;35.20;;;7.20;99.90;;;;;;5073543;28;20032;-72
2022/03/17 05:02:39;;;;;;;50.05;35.45;;;7.20;99.90;;;;;;5073779;28;20071;-71
2022/03/17 05:05:05;;;;;;;49.58;34.70;;;7.20;99.90;;;;;;5056904;28;20052;-72
2022/03/17 05:07:30;;;;;;;46.25;34.28;;;7.20;99.90;;;;;;5072468;28;20033;-71
2022/03/17 05:09:56;;;;;;;52.03;36.78;;;7.30;99.90;;;;;;5072531;28;20036;-73
2022/03/17 05:12:22;;;;;;;56.33;37.92;;;7.20;99.90;;;;;;5073699;28;20044;-71
2022/03/17 05:14:47;;;;;;;50.13;34.92;;;7.20;99.90;;;;;;5059114;28;20033;-72
2022/03/17 05:17:13;;;;;;;49.42;35.17;;;7.20;99.90;;;;;;5069592;28;20028;-71
2022/03/17 05:19:38;;;;;;;52.45;37.30;;;7.20;99.90;;;;;;5054620;28;20033;-71
2022/03/17 05:22:04;;;;;;;52.05;35.97;;;7.20;99.90;;;;;;5052636;28;20111;-71
2022/03/17 05:24:30;;;;;;;45.55;32.60;;;7.20;99.90;;;;;;5066105;28;20474;-72
2022/03/17 05:26:57;;;;;;;50.30;36.25;;;7.20;99.90;;;;;;5058303;28;20486;-71
2022/03/17 05:29:23;;;;;;;50.13;36.33;;;7.20;99.90;;;;;;5053362;28;20021;-71
2022/03/17 05:31:49;;;;;;;51.47;35.88;;;7.20;99.90;;;;;;5051876;28;20040;-72
2022/03/17 05:34:15;;;;;;;48.45;34.67;;;7.20;99.90;;;;;;5063283;28;20393;-71
2022/03/17 05:36:40;;;;;;;49.92;34.40;;;7.20;99.90;;;;;;5059359;28;20484;-72
2022/03/17 05:39:06;;;;;;;50.70;36.08;;;7.10;99.90;;;;;;5052219;28;20068;-72
2022/03/17 05:41:32;;;;;;;50.15;34.60;;;7.20;99.90;;;;;;5072735;28;20037;-71
2022/03/17 05:43:57;;;;;;;48.03;34.17;;;7.20;99.90;;;;;;5061199;28;20377;-71
2022/03/17 05:46:25;;;;;;;49.53;35.00;;;7.20;99.90;;;;;;5052873;28;20040;-71
2022/03/17 05:48:52;;;;;;;52.75;36.17;;;7.20;99.90;;;;;;5057742;28;20413;-69
2022/03/17 05:51:18;;;;;;;51.58;35.72;;;7.20;99.90;;;;;;5072854;28;20036;-69
2022/03/17 05:53:44;;;;;;;54.28;36.28;;;7.20;99.90;;;;;;5072039;28;20107;-72
2022/03/17 05:56:09;;;;;;;50.58;34.97;;;7.20;99.90;;;;;;5063286;28;20060;-71
2022/03/17 05:58:35;;;;;;;51.78;36.67;;;7.10;99.90;;;;;;5067330;28;20056;-70
2022/03/17 06:01:01;;;;;;;57.05;37.05;;;7.20;99.90;;;;;;5071385;28;20055;-71
2022/03/17 06:03:27;;;;;;;54.30;37.20;;;7.20;99.90;;;;;;5072351;28;20028;-70
2022/03/17 06:05:52;;;;;;;48.40;34.97;;;7.20;99.90;;;;;;5063792;28;20063;-71
2022/03/17 06:08:18;;;;;;;50.28;35.08;;;7.20;99.90;;;;;;5052541;28;20493;-73
2022/03/17 06:10:44;;;;;;;48.75;34.20;;;7.20;99.90;;;;;;5051818;28;20037;-75
2022/03/17 06:13:10;;;;;;;50.50;36.15;;;7.20;99.90;;;;;;5051942;28;20100;-72
2022/03/17 06:15:35;;;;;;;54.60;37.70;;;7.20;99.90;;;;;;5057893;28;20228;-71
2022/03/17 06:18:03;;;;;;;50.83;35.70;;;7.20;99.90;;;;;;5071464;28;20480;-72
2022/03/17 06:20:31;;;;;;;54.10;36.90;;;7.30;99.90;;;;;;5071854;28;20028;-73
2022/03/17 06:22:59;;;;;;;49.50;35.63;;;7.30;99.90;;;;;;5071556;28;20458;-72
2022/03/17 06:25:27;;;;;;;53.42;36.38;;;7.30;99.90;;;;;;5067809;28;20485;-69
2022/03/17 06:27:54;;;;;;;51.88;36.33;;;7.40;99.90;;;;;;5051239;28;20036;-71
2022/03/17 06:30:25;;;;;;;51.75;35.42;;;7.40;99.90;;;;;;5052323;28;20033;-72
2022/03/17 06:32:52;;;;;;;53.55;36.85;;;7.40;99.90;;;;;;5051354;28;20549;-73
2022/03/17 06:35:20;;;;;;;53.60;36.47;;;7.40;99.90;;;;;;5052080;28;20025;-74
2022/03/17 06:37:49;;;;;;;50.83;35.65;;;7.40;99.90;;;;;;5055806;28;20031;-73
2022/03/17 06:40:16;;;;;;;51.03;34.40;;;7.40;99.90;;;;;;5068980;28;20567;-73
2022/03/17 06:42:42;;;;;;;54.45;37.45;;;7.40;99.90;;;;;;5052992;28;20028;-75
2022/03/17 06:45:09;;;;;;;50.20;36.38;;;7.50;99.90;;;;;;5051035;28;20032;-72
2022/03/17 06:47:35;;;;;;;55.13;36.13;;;7.60;99.90;;;;;;5051841;28;20033;-73
2022/03/17 06:50:01;;;;;;;50.30;35.15;;;7.60;99.90;;;;;;5062119;28;20098;-74
2022/03/17 06:52:26;;;;;;;54.72;35.78;;;7.60;99.90;;;;;;5071969;28;20044;-75
2022/03/17 06:54:53;;;;;;;46.22;33.40;;;7.70;99.90;;;;;;5071582;28;20094;-79
2022/03/17 06:57:20;;;;;;;52.08;36.10;;;7.70;99.90;;;;;;5072940;28;20021;-78
2022/03/17 06:59:48;;;;;;;49.63;35.88;;;7.80;99.90;;;;;;5075146;28;20029;-71
2022/03/17 07:02:14;;;;;;;48.70;34.33;;;7.80;99.90;;;;;;5054536;28;20397;-78
2022/03/17 07:04:41;;;;;;;48.95;35.40;;;7.90;99.90;;;;;;5085887;28;20032;-79
2022/03/17 07:07:07;;;;;;;47.22;33.58;;;7.90;99.90;;;;;;5090817;28;20072;-82
2022/03/17 07:09:33;;;;;;;52.58;36.50;;;8.00;99.90;;;;;;5095195;28;20381;-74
2022/03/17 07:11:59;;;;;;;51.88;36.22;;;8.00;99.90;;;;;;5090855;28;20453;-73
2022/03/17 07:14:24;;;;;;;51.20;36.25;;;8.10;99.90;;;;;;5081328;28;20111;-73
2022/03/17 07:16:50;;;;;;;51.00;35.60;;;8.30;99.90;;;;;;5090571;28;20040;-73
2022/03/17 07:19:16;;;;;;;53.00;36.92;;;8.30;99.90;;;;;;5091644;28;20047;-75
2022/03/17 07:21:41;;;;;;;49.58;34.55;;;8.30;99.90;;;;;;5091680;28;20036;-78
2022/03/17 07:24:09;;;;;;;50.53;35.45;;;8.40;99.90;;;;;;5074191;28;20498;-76
2022/03/17 07:26:35;;;;;;;52.78;37.47;;;8.40;99.90;;;;;;5072074;28;20468;-82
2022/03/17 07:29:02;;;;;;;52.20;35.13;;;8.40;99.90;;;;;;5074909;28;20108;-85
2022/03/17 07:31:28;;;;;;;49.28;34.80;;;8.40;99.90;;;;;;5054324;28;20443;-78
2022/03/17 07:33:54;;;;;;;58.28;36.47;;;8.40;99.90;;;;;;5086271;28;20453;-77
2022/03/17 07:36:21;;;;;;;50.40;36.65;;;8.50;99.90;;;;;;5082648;28;20028;-78
2022/03/17 07:38:47;;;;;;;51.97;37.65;;;8.60;99.90;;;;;;5091567;28;20035;-77
2022/03/17 07:41:13;;;;;;;50.60;36.30;;;8.60;99.90;;;;;;5079575;28;20377;-77
2022/03/17 07:43:41;;;;;;;50.35;36.38;;;8.70;99.90;;;;;;5071694;28;20037;-78
2022/03/17 07:46:06;;;;;;;52.00;36.40;;;8.70;99.90;;;;;;5074210;28;20069;-78
2022/03/17 07:48:32;;;;;;;55.65;38.63;;;8.70;99.90;;;;;;5075064;28;20040;-78
2022/03/17 07:50:58;;;;;;;49.83;35.85;;;8.80;99.90;;;;;;5055029;28;20057;-78
2022/03/17 07:53:23;;;;;;;50.05;34.50;;;8.70;99.90;;;;;;5071665;28;20031;-79
2022/03/17 07:55:54;;;;;;;50.28;36.53;;;8.80;99.90;;;;;;5072102;28;20095;-76
2022/03/17 07:58:24;;;;;;;50.55;37.42;;;8.80;99.90;;;;;;5054683;28;20029;-79
2022/03/17 08:00:55;;;;;;;52.85;37.35;;;8.90;99.90;;;;;;5058992;28;20115;-77
2022/03/17 08:03:22;;;;;;;52.80;38.22;;;8.90;99.90;;;;;;5073507;28;20366;-78
2022/03/17 08:05:48;;;;;;;49.47;36.13;;;9.00;99.90;;;;;;5058513;28;20024;-77
2022/03/17 08:08:15;;;;;;;52.90;37.30;;;9.10;99.90;;;;;;5067716;28;20024;-77
2022/03/17 08:10:41;;;;;;;54.47;39.78;;;9.10;99.90;;;;;;5074291;28;20017;-77
2022/03/17 08:13:08;;;;;;;51.80;37.75;;;9.10;99.90;;;;;;5061819;28;20033;-78
2022/03/17 08:15:34;;;;;;;51.92;37.75;;;9.10;99.90;;;;;;5074628;28;20484;-78
2022/03/17 08:17:59;;;;;;;50.85;36.85;;;9.10;99.90;;;;;;5070866;28;20033;-78
2022/03/17 08:20:25;;;;;;;53.88;38.33;;;9.10;99.90;;;;;;5074576;28;20036;-79
2022/03/17 08:22:51;;;;;;;47.88;35.88;;;9.10;99.90;;;;;;5073452;28;20035;-77
2022/03/17 08:25:17;;;;;;;52.72;38.20;;;9.20;99.90;;;;;;5074681;28;20393;-79
2022/03/17 08:27:43;;;;;;;50.72;35.75;;;9.20;99.90;;;;;;5074542;28;20021;-78
2022/03/17 08:30:10;;;;;;;53.20;37.60;;;9.30;99.90;;;;;;5074048;28;20051;-79
2022/03/17 08:32:36;;;;;;;52.90;37.33;;;9.40;99.90;;;;;;5060789;28;20041;-77
2022/03/17 08:35:02;;;;;;;54.63;38.38;;;9.40;99.90;;;;;;5061308;28;20036;-77
2022/03/17 08:37:27;;;;;;;53.53;37.38;;;9.50;99.90;;;;;;5055544;28;20021;-78
2022/03/17 08:39:53;;;;;;;55.25;38.80;;;9.50;99.90;;;;;;5071867;28;20100;-76
2022/03/17 08:42:18;;;;;;;50.10;36.00;;;9.50;99.90;;;;;;5054367;28;20029;-78
2022/03/17 08:44:44;;;;;;;54.80;38.25;;;9.60;99.90;;;;;;5054409;28;20021;-77
2022/03/17 08:49:54;;;;;;;53.90;38.38;;;9.70;99.90;;;;;;5053156;28;20106;-76
2022/03/17 08:52:19;;;;;;;53.30;37.45;;;9.70;99.90;;;;;;5036253;28;20131;-78
2022/03/17 08:54:45;;;;;;;50.53;36.88;;;9.80;99.90;;;;;;5054361;28;20028;-78
2022/03/17 08:57:12;;;;;;;51.83;37.78;;;9.80;99.90;;;;;;5067954;28;20323;-77
2022/03/17 08:59:38;;;;;;;51.90;36.42;;;9.90;99.90;;;;;;5077123;28;20104;-76
2022/03/17 09:02:07;;;;;;;47.20;35.28;;;9.90;99.90;;;;;;5076925;28;20037;-77
2022/03/17 09:04:34;;;;;;;51.15;35.78;;;10.00;99.90;;;;;;5078975;28;20021;-76
2022/03/17 09:07:01;;;;;;;50.53;36.83;;;10.00;99.90;;;;;;5066726;28;20033;-77
2022/03/17 09:09:28;;;;;;;47.40;34.35;;;10.10;99.90;;;;;;5063608;28;20044;-77
2022/03/17 09:11:54;;;;;;;47.80;35.33;;;10.20;99.90;;;;;;5060538;28;20048;-76
2022/03/17 09:14:21;;;;;;;48.92;34.75;;;10.20;99.90;;;;;;5059538;28;20509;-77
2022/03/17 09:16:47;;;;;;;55.00;36.03;;;10.30;99.90;;;;;;5070376;28;20032;-77
2022/03/17 09:19:12;;;;;;;48.42;35.85;;;10.40;99.90;;;;;;5072712;28;20020;-78
2022/03/17 09:21:38;;;;;;;46.95;33.95;;;10.40;99.90;;;;;;5073567;28;20119;-79
2022/03/17 09:24:04;;;;;;;49.63;34.17;;;10.50;99.90;;;;;;5056573;28;20092;-78
2022/03/17 09:26:33;;;;;;;46.65;34.63;;;10.50;99.90;;;;;;5053363;28;20029;-78
2022/03/17 09:28:59;;;;;;;48.72;34.50;;;10.60;99.90;;;;;;5036748;28;20072;-79
2022/03/17 09:31:26;;;;;;;45.45;34.58;;;10.70;99.90;;;;;;5073032;28;20100;-79
2022/03/17 09:33:52;;;;;;;50.05;37.08;;;10.80;99.90;;;;;;5065674;28;20413;-77
2022/03/17 09:36:17;;;;;;;47.80;35.10;;;10.90;99.90;;;;;;5070139;28;20085;-78
2022/03/17 09:38:44;;;;;;;47.03;35.13;;;11.00;99.90;;;;;;5055225;28;20029;-78
2022/03/17 09:41:25;;;;;;;48.60;35.22;;;11.00;99.90;;;;;;5071365;28;20033;-78
2022/03/17 09:43:53;;;;;;;49.42;35.40;;;11.10;99.90;;;;;;5068692;28;20029;-77
2022/03/17 09:46:21;;;;;;;44.85;33.22;;;11.20;99.90;;;;;;5051989;28;20450;-78
2022/03/17 09:48:52;;;;;;;52.00;35.40;;;11.20;99.90;;;;;;5067288;28;20371;-78
2022/03/17 09:51:21;;;;;;;48.30;35.15;;;11.30;99.90;;;;;;5064706;28;20039;-78
2022/03/17 09:53:47;;;;;;;44.28;32.95;;;11.40;99.90;;;;;;5053004;28;20024;-78
2022/03/17 09:56:13;;;;;;;45.40;32.58;;;11.40;99.90;;;;;;5056173;28;20167;-78
2022/03/17 09:58:39;;;;;;;45.58;33.38;;;11.40;99.90;;;;;;5052807;28;20374;-78
2022/03/17 10:01:06;;;;;;;45.70;34.35;;;11.50;99.90;;;;;;5069259;28;20595;-78
2022/03/17 10:03:34;;;;;;;49.80;34.63;;;11.60;99.90;;;;;;5072642;28;20413;-79
2022/03/17 10:06:02;;;;;;;46.53;34.20;;;11.70;99.90;;;;;;5069922;28;20120;-79
2022/03/17 10:08:29;;;;;;;46.28;34.00;;;11.70;99.90;;;;;;5072540;28;20028;-78
2022/03/17 10:10:54;;;;;;;48.17;35.17;;;11.70;99.90;;;;;;5062679;28;20053;-75
2022/03/17 10:13:22;;;;;;;47.97;35.08;;;11.90;99.90;;;;;;5051648;28;20369;-78
2022/03/17 10:16:09;;;;;;;47.55;34.10;;;11.80;99.90;;;;;;5068229;28;20107;-77
2022/03/17 10:18:37;;;;;;;47.05;34.28;;;11.90;99.90;;;;;;5072565;28;20103;-78
2022/03/17 10:21:07;;;;;;;49.88;34.42;;;11.90;99.90;;;;;;5068904;28;20063;-77
2022/03/17 10:23:44;;;;;;;52.70;36.22;;;11.90;99.90;;;;;;5072343;28;20021;-77
2022/03/17 10:26:11;;;;;;;50.35;34.78;;;12.00;99.90;;;;;;5067679;28;20132;-77
2022/03/17 10:28:38;;;;;;;55.30;41.20;;;12.00;99.90;;;;;;5052264;28;20035;-78
2022/03/17 10:31:06;;;;;;;57.88;40.97;;;12.10;99.90;;;;;;5050835;28;20041;-79
2022/03/17 10:33:32;;;;;;;54.63;37.85;;;12.10;99.90;;;;;;5052058;28;20459;-77
2022/03/17 10:36:15;;;;;;;53.35;35.85;;;12.10;99.90;;;;;;5066235;28;20078;-77
2022/03/17 10:38:43;;;;;;;49.10;35.83;;;12.10;99.90;;;;;;5072112;28;20028;-78
2022/03/17 10:41:12;;;;;;;49.00;35.72;;;12.10;99.90;;;;;;5057174;28;20060;-77
2022/03/17 10:43:41;;;;;;;54.42;36.90;;;12.10;99.90;;;;;;5051514;28;20544;-78
2022/03/17 10:46:17;;;;;;;57.88;37.60;;;12.10;99.90;;;;;;5057440;28;20082;-78
2022/03/17 10:49:00;;;;;;;55.03;35.83;;;12.20;99.90;;;;;;5059001;28;20116;-77
2022/03/17 10:51:38;;;;;;;52.70;36.15;;;12.20;99.90;;;;;;5071802;28;20393;-78
2022/03/17 10:54:11;;;;;;;49.03;35.97;;;12.30;99.90;;;;;;5068727;28;20108;-78
2022/03/17 10:56:38;;;;;;;53.47;36.90;;;12.30;99.90;;;;;;5052639;28;20086;-75
2022/03/17 10:59:07;;;;;;;51.85;37.40;;;12.40;99.90;;;;;;5050952;28;20033;-76
2022/03/17 11:01:39;;;;;;;60.38;37.80;;;12.40;99.90;;;;;;5051345;28;20421;-77
2022/03/17 11:04:06;;;;;;;58.55;37.08;;;12.50;99.90;;;;;;5051773;28;20057;-79
2022/03/17 11:06:39;;;;;;;45.45;33.80;;;12.50;99.90;;;;;;5062419;28;20057;-79
2022/03/17 11:09:05;;;;;;;49.25;34.47;;;12.50;99.90;;;;;;5051035;28;20029;-78
2022/03/17 11:11:31;;;;;;;47.17;34.05;;;12.60;99.90;;;;;;5051752;28;20033;-77
2022/03/17 11:13:59;;;;;;;47.58;34.35;;;12.70;99.90;;;;;;5051172;28;20025;-75
2022/03/17 11:16:37;;;;;;;46.28;33.72;;;12.90;99.90;;;;;;5053508;28;20050;-77
2022/03/17 11:19:04;;;;;;;62.70;36.70;;;12.80;99.90;;;;;;5052351;28;20512;-76
2022/03/17 11:21:31;;;;;;;53.80;37.22;;;12.90;99.90;;;;;;5055978;28;20039;-77
2022/03/17 11:24:07;;;;;;;52.17;37.28;;;12.90;99.90;;;;;;5070088;28;20035;-77
2022/03/17 11:26:38;;;;;;;48.78;34.65;;;12.80;99.90;;;;;;5056555;28;20029;-77
2022/03/17 11:29:09;;;;;;;50.65;34.97;;;12.70;99.90;;;;;;5054232;28;20052;-78
2022/03/17 11:32:01;;;;;;;50.28;35.58;;;12.70;99.90;;;;;;5054671;28;20047;-77
2022/03/17 11:34:38;;;;;;;51.55;35.47;;;12.60;99.90;;;;;;5057485;28;20111;-78
2022/03/17 11:37:26;;;;;;;51.15;35.95;;;12.50;99.90;;;;;;5074034;28;20032;-77
2022/03/17 11:40:06;;;;;;;50.75;35.20;;;12.50;99.90;;;;;;5062550;28;20031;-78
2022/03/17 11:42:47;;;;;;;51.75;36.20;;;12.40;99.90;;;;;;5074599;28;20032;-77
2022/03/17 11:45:15;;;;;;;55.00;34.15;;;12.30;99.90;;;;;;5058455;28;20088;-77
2022/03/17 11:47:54;;;;;;;52.45;34.60;;;12.30;99.90;;;;;;5054581;28;20104;-76
2022/03/17 11:50:38;;;;;;;48.85;33.72;;;12.20;99.90;;;;;;5033834;28;20128;-76
2022/03/17 11:53:12;;;;;;;51.05;34.40;;;12.10;99.90;;;;;;5044093;28;20044;-77
2022/03/17 11:55:41;;;;;;;51.97;34.28;;;12.10;99.90;;;;;;5074662;28;20025;-77
2022/03/17 11:58:19;;;;;;;57.13;36.75;;;12.00;99.90;;;;;;5072641;28;20118;-75
2022/03/17 12:00:51;;;;;;;56.03;35.33;;;11.80;99.90;;;;;;5057388;28;20025;-78
2022/03/17 12:03:37;;;;;;;55.15;35.70;;;11.70;99.90;;;;;;5054927;28;20155;-77
2022/03/17 12:06:05;;;;;;;52.55;33.05;;;11.60;99.90;;;;;;5047673;28;20043;-77
2022/03/17 12:08:38;;;;;;;55.42;36.65;;;11.60;99.90;;;;;;5074262;28;20025;-76
2022/03/17 12:11:10;;;;;;;50.60;35.40;;;11.70;99.90;;;;;;5073340;28;20028;-76
2022/03/17 12:13:36;;;;;;;51.83;35.47;;;11.70;99.90;;;;;;5073015;28;20050;-75
2022/03/17 12:16:03;;;;;;;48.67;33.72;;;11.70;99.90;;;;;;5053446;28;20108;-76
2022/03/17 12:18:29;;;;;;;57.05;35.33;;;11.60;99.90;;;;;;5054320;28;20112;-76
2022/03/17 12:20:57;;;;;;;56.10;37.75;;;11.60;99.90;;;;;;5054989;28;20166;-75
2022/03/17 12:23:44;;;;;;;52.83;35.85;;;11.70;99.90;;;;;;5058332;28;20037;-76
2022/03/17 12:26:09;;;;;;;55.10;35.97;;;11.70;99.90;;;;;;5073565;28;20469;-76
2022/03/17 12:28:44;;;;;;;55.60;37.95;;;11.60;99.90;;;;;;5073965;28;20028;-76
2022/03/17 12:31:10;;;;;;;52.45;36.55;;;11.60;99.90;;;;;;5072194;28;20458;-76
2022/03/17 12:33:38;;;;;;;60.47;38.25;;;11.50;99.90;;;;;;5068170;28;20037;-77
2022/03/17 12:36:05;;;;;;;54.92;37.80;;;11.60;99.90;;;;;;5069079;28;20056;-77
2022/03/17 12:38:33;;;;;;;56.13;38.15;;;11.60;99.90;;;;;;5074072;28;20462;-76
2022/03/17 12:40:58;;;;;;;58.28;37.97;;;11.70;99.90;;;;;;5073333;28;20082;-76
2022/03/17 12:43:24;;;;;;;58.40;37.35;;;11.80;99.90;;;;;;5058244;28;20037;-77
2022/03/17 12:45:51;;;;;;;57.33;37.97;;;11.90;99.90;;;;;;5054242;28;20028;-77
2022/03/17 12:48:18;;;;;;;57.55;38.83;;;12.00;99.90;;;;;;5069649;28;20529;-77
2022/03/17 12:50:45;;;;;;;52.58;36.33;;;12.10;99.90;;;;;;5073957;28;20048;-79